createdAt,value
2019-04-29T00:05:45.066Z,5.40
2019-04-29T00:12:31.317Z,5.30
2019-04-29T00:19:24.535Z,5.30
2019-04-29T00:26:10.102Z,5.20
2019-04-29T00:32:55.335Z,5.40
2019-04-29T00:39:51.415Z,5.30
2019-04-29T00:46:36.703Z,5.30
2019-04-29T00:53:21.707Z,5.10
2019-04-29T01:00:08.314Z,4.90
2019-04-29T01:06:55.115Z,4.80
2019-04-29T01:13:39.968Z,4.70
2019-04-29T01:20:24.822Z,4.70
2019-04-29T01:27:11.384Z,4.60
2019-04-29T01:33:57.930Z,4.40
2019-04-29T01:40:47.878Z,4.40
2019-04-29T01:47:32.747Z,4.30
2019-04-29T01:54:17.730Z,4.30
2019-04-29T02:01:02.699Z,4.20
2019-04-29T02:07:47.911Z,4.20
2019-04-29T02:14:33.079Z,4.10
2019-04-29T02:21:18.107Z,4.00
2019-04-29T02:28:03.053Z,3.80
2019-04-29T02:34:48.546Z,3.80
2019-04-29T02:41:38.149Z,3.70
2019-04-29T02:48:23.307Z,3.70
2019-04-29T02:55:10.295Z,3.70
2019-04-29T03:02:06.677Z,3.60
2019-04-29T03:08:51.772Z,3.60
2019-04-29T03:15:39.698Z,3.60
2019-04-29T03:22:25.308Z,3.60
2019-04-29T03:29:12.038Z,3.60
2019-04-29T03:35:57.179Z,3.60
2019-04-29T03:42:43.271Z,3.50
2019-04-29T03:49:28.119Z,3.40
2019-04-29T03:56:13.279Z,3.50
2019-04-29T04:03:14.775Z,3.50
2019-04-29T04:09:59.735Z,3.50
2019-04-29T04:17:04.965Z,3.60
2019-04-29T04:23:50.027Z,3.70
2019-04-29T04:30:35.043Z,3.60
2019-04-29T04:37:20.010Z,3.70
2019-04-29T04:44:05.080Z,3.90
2019-04-29T04:50:50.049Z,4.10
2019-04-29T04:57:35.101Z,4.20
2019-04-29T05:04:20.098Z,4.40
2019-04-29T05:11:05.070Z,4.70
2019-04-29T05:17:53.033Z,5.10
2019-04-29T05:24:36.694Z,5.50
2019-04-29T05:31:21.564Z,5.90
2019-04-29T05:38:13.922Z,6.30
2019-04-29T05:45:16.863Z,6.50
2019-04-29T05:52:15.787Z,6.90
2019-04-29T05:59:00.751Z,7.50
2019-04-29T06:05:45.758Z,7.90
2019-04-29T06:12:30.902Z,8.10
2019-04-29T06:19:15.901Z,8.90
2019-04-29T06:26:01.252Z,9.10
2019-04-29T06:32:46.389Z,9.70
2019-04-29T06:39:31.632Z,10.20
2019-04-29T06:46:16.669Z,10.20
2019-04-29T06:53:02.120Z,10.40
2019-04-29T06:59:48.628Z,11.30
2019-04-29T07:06:33.675Z,12.10
2019-04-29T07:13:22.930Z,15.20
2019-04-29T07:20:06.923Z,18.50
2019-04-29T07:26:51.972Z,17.30
2019-04-29T07:33:37.050Z,15.10
2019-04-29T07:40:22.445Z,15.90
2019-04-29T07:47:07.378Z,14.60
2019-04-29T07:53:52.359Z,14.20
2019-04-29T08:00:37.552Z,14.60
2019-04-29T08:07:23.797Z,14.10
2019-04-29T08:14:08.810Z,15.00
2019-04-29T08:20:54.047Z,16.30
2019-04-29T08:27:41.862Z,17.40
2019-04-29T08:34:25.759Z,16.80
2019-04-29T08:41:10.927Z,17.40
2019-04-29T08:47:56.043Z,18.30
2019-04-29T08:54:41.254Z,18.10
2019-04-29T09:01:29.308Z,20.40
2019-04-29T09:08:13.523Z,19.00
2019-04-29T09:14:59.023Z,18.10
2019-04-29T09:21:45.733Z,19.30
2019-04-29T09:28:30.835Z,20.70
2019-04-29T09:35:16.471Z,20.60
2019-04-29T09:42:03.577Z,21.10
2019-04-29T09:48:48.942Z,22.20
2019-04-29T09:55:35.612Z,21.30
2019-04-29T10:02:37.719Z,22.70
2019-04-29T10:09:23.356Z,24.40
2019-04-29T10:16:09.983Z,22.90
2019-04-29T10:22:55.031Z,20.80
2019-04-29T10:29:41.851Z,20.30
2019-04-29T10:36:27.227Z,20.40
2019-04-29T10:43:17.285Z,19.60
2019-04-29T10:50:19.545Z,19.10
2019-04-29T10:57:05.228Z,18.20
2019-04-29T11:03:50.539Z,19.00
2019-04-29T11:10:36.113Z,18.10
2019-04-29T11:17:23.029Z,18.60
2019-04-29T11:24:09.844Z,18.00
2019-04-29T11:30:55.120Z,18.00
2019-04-29T11:37:41.312Z,17.50
2019-04-29T11:44:27.689Z,17.90
2019-04-29T11:51:20.315Z,18.40
2019-04-29T11:58:13.256Z,18.80
2019-04-29T12:05:04.273Z,19.30
2019-04-29T12:11:46.598Z,19.00
2019-04-29T12:18:33.999Z,19.50
2019-04-29T12:25:22.987Z,18.60
2019-04-29T12:32:14.201Z,18.60
2019-04-29T12:39:03.710Z,19.00
2019-04-29T12:45:53.672Z,17.70
2019-04-29T12:52:38.689Z,18.10
2019-04-29T12:59:24.659Z,17.20
2019-04-29T13:06:24.347Z,17.50
2019-04-29T13:13:11.442Z,18.00
2019-04-29T13:20:07.346Z,17.70
2019-04-29T13:26:51.007Z,17.60
2019-04-29T13:33:35.969Z,17.30
2019-04-29T13:40:21.315Z,17.70
2019-04-29T13:47:10.764Z,18.00
2019-04-29T13:53:59.792Z,18.30
2019-04-29T14:00:59.865Z,18.50
2019-04-29T14:07:43.407Z,17.70
2019-04-29T14:14:28.706Z,17.60
2019-04-29T14:21:13.787Z,17.70
2019-04-29T14:27:58.907Z,17.50
2019-04-29T14:34:57.578Z,16.70
2019-04-29T14:41:44.499Z,15.50
2019-04-29T14:48:42.037Z,15.40
2019-04-29T14:55:19.880Z,14.90
2019-04-29T15:02:16.205Z,14.10
2019-04-29T15:08:54.623Z,13.40
2019-04-29T15:15:41.438Z,13.20
2019-04-29T15:22:28.523Z,13.90
2019-04-29T15:29:13.955Z,14.80
2019-04-29T15:35:59.909Z,14.80
2019-04-29T15:42:49.135Z,14.50
2019-04-29T15:49:32.500Z,14.50
2019-04-29T15:56:28.219Z,14.60
2019-04-29T16:03:04.170Z,14.00
2019-04-29T16:09:52.128Z,13.30
2019-04-29T16:16:38.380Z,13.10
2019-04-29T16:23:23.334Z,13.10
2019-04-29T16:30:09.579Z,12.60
2019-04-29T16:36:54.874Z,12.10
2019-04-29T16:43:42.583Z,12.00
2019-04-29T16:50:27.898Z,11.90
2019-04-29T16:57:37.812Z,11.80
2019-04-29T17:04:22.848Z,11.60
2019-04-29T17:11:12.063Z,11.60
2019-04-29T17:17:56.242Z,11.30
2019-04-29T17:24:41.252Z,11.20
2019-04-29T17:31:31.281Z,11.20
2019-04-29T17:38:16.598Z,11.00
2019-04-29T17:45:10.498Z,10.90
2019-04-29T17:51:49.859Z,10.70
2019-04-29T17:58:51.272Z,10.60
2019-04-29T18:05:52.917Z,10.70
2019-04-29T18:12:26.286Z,10.50
2019-04-29T18:19:18.804Z,10.40
2019-04-29T18:26:06.225Z,10.30
2019-04-29T18:32:53.024Z,10.20
2019-04-29T18:39:38.602Z,10.10
2019-04-29T18:46:25.885Z,10.10
2019-04-29T18:53:11.455Z,10.00
2019-04-29T18:59:56.440Z,10.00
2019-04-29T19:06:41.966Z,10.00
2019-04-29T19:13:27.063Z,10.00
2019-04-29T19:20:16.679Z,10.00
2019-04-29T19:27:01.075Z,9.90
2019-04-29T19:33:47.107Z,10.00
2019-04-29T19:40:38.907Z,10.00
2019-04-29T19:47:18.835Z,9.90
2019-04-29T19:54:05.151Z,9.70
2019-04-29T20:00:51.800Z,9.80
2019-04-29T20:07:42.331Z,9.80
2019-04-29T20:14:29.656Z,9.80
2019-04-29T20:21:24.641Z,9.70
2019-04-29T20:28:06.050Z,9.60
2019-04-29T20:34:48.522Z,9.60
2019-04-29T20:41:40.696Z,9.60
2019-04-29T20:48:21.036Z,9.50
2019-04-29T20:55:09.287Z,9.50
2019-04-29T21:02:12.090Z,9.50
2019-04-29T21:08:50.958Z,9.40
2019-04-29T21:15:39.650Z,9.40
2019-04-29T21:22:26.049Z,9.50
2019-04-29T21:29:15.747Z,9.50
2019-04-29T21:35:59.442Z,9.50
2019-04-29T21:42:47.370Z,9.60
2019-04-29T21:49:43.273Z,9.60
2019-04-29T21:56:18.838Z,9.60
2019-04-29T22:03:05.409Z,9.60
2019-04-29T22:09:50.486Z,9.60
2019-04-29T22:16:35.672Z,9.60
2019-04-29T22:23:21.600Z,9.60
2019-04-29T22:30:10.247Z,9.60
2019-04-29T22:36:58.310Z,9.60
2019-04-29T22:43:46.958Z,9.60
2019-04-29T22:50:33.746Z,9.60
2019-04-29T22:57:22.969Z,9.60
2019-04-29T23:04:09.582Z,9.70
2019-04-29T23:10:52.495Z,9.60
2019-04-29T23:17:37.540Z,9.60
2019-04-29T23:24:40.303Z,9.60
2019-04-29T23:31:27.095Z,9.50
2019-04-29T23:38:12.950Z,9.50
2019-04-29T23:44:57.855Z,9.50
2019-04-29T23:51:42.741Z,9.50
2019-04-29T23:58:37.246Z,9.40
